createdAt,value
2023-04-20T00:00:52.253Z,25.17
2023-04-20T00:01:52.303Z,25.19
2023-04-20T00:02:52.437Z,25.20
2023-04-20T00:03:52.767Z,25.19
2023-04-20T00:04:52.415Z,25.21
2023-04-20T00:05:52.337Z,25.17
2023-04-20T00:06:52.371Z,25.14
2023-04-20T00:07:52.371Z,25.13
2023-04-20T00:08:52.410Z,25.11
2023-04-20T00:09:52.409Z,25.11
2023-04-20T00:10:52.450Z,25.14
2023-04-20T00:11:52.470Z,25.15
2023-04-20T00:12:52.501Z,25.11
2023-04-20T00:13:52.533Z,25.10
2023-04-20T00:14:52.548Z,25.09
2023-04-20T00:15:52.561Z,25.08
2023-04-20T00:16:52.695Z,25.08
2023-04-20T00:17:52.721Z,25.12
2023-04-20T00:18:52.711Z,25.11
2023-04-20T00:19:52.678Z,25.10
2023-04-20T00:20:52.685Z,25.13
2023-04-20T00:21:52.714Z,25.10
2023-04-20T00:22:52.709Z,25.08
2023-04-20T00:23:52.788Z,25.09
2023-04-20T00:24:52.772Z,25.14
2023-04-20T00:25:52.807Z,25.13
2023-04-20T00:26:52.821Z,25.16
2023-04-20T00:27:52.858Z,25.17
2023-04-20T00:28:52.855Z,25.17
2023-04-20T00:29:52.880Z,25.16
2023-04-20T00:30:52.898Z,25.20
2023-04-20T00:31:52.916Z,25.19
2023-04-20T00:32:53.015Z,25.21
2023-04-20T00:33:52.992Z,25.22
2023-04-20T00:34:53.004Z,25.26
2023-04-20T00:35:52.996Z,25.23
2023-04-20T00:36:53.041Z,25.29
2023-04-20T00:37:53.048Z,25.28
2023-04-20T00:38:53.179Z,25.27
2023-04-20T00:39:53.120Z,25.27
2023-04-20T00:40:53.155Z,25.23
2023-04-20T00:41:53.159Z,25.25
2023-04-20T00:42:53.181Z,25.24
2023-04-20T00:43:53.216Z,25.25
2023-04-20T00:44:53.235Z,25.26
2023-04-20T00:45:53.264Z,25.28
2023-04-20T00:46:53.255Z,25.26
2023-04-20T00:47:53.397Z,25.26
2023-04-20T00:48:53.342Z,25.30
2023-04-20T00:49:53.361Z,25.28
2023-04-20T00:50:53.369Z,25.29
2023-04-20T00:51:53.395Z,25.26
2023-04-20T00:52:53.434Z,25.27
2023-04-20T00:53:53.470Z,25.25
2023-04-20T00:54:53.490Z,25.25
2023-04-20T00:55:53.517Z,25.26
2023-04-20T00:56:53.534Z,25.26
2023-04-20T00:57:53.548Z,25.25
2023-04-20T00:58:53.587Z,25.23
2023-04-20T00:59:53.627Z,25.26
2023-04-20T01:00:53.629Z,25.22
2023-04-20T01:01:53.676Z,25.23
2023-04-20T01:02:53.774Z,25.23
2023-04-20T01:03:53.790Z,25.24
2023-04-20T01:04:53.749Z,25.24
2023-04-20T01:05:53.770Z,25.22
2023-04-20T01:06:53.789Z,25.24
2023-04-20T01:07:53.791Z,25.24
2023-04-20T01:08:53.836Z,25.24
2023-04-20T01:09:53.854Z,25.24
2023-04-20T01:10:53.885Z,25.25
2023-04-20T01:11:53.900Z,25.25
2023-04-20T01:12:53.915Z,25.29
2023-04-20T01:13:53.950Z,25.26
2023-04-20T01:14:53.983Z,25.27
2023-04-20T01:15:54.002Z,25.29
2023-04-20T01:16:54.053Z,25.28
2023-04-20T01:17:54.090Z,25.30
2023-04-20T01:18:54.161Z,25.30
2023-04-20T01:19:54.132Z,25.32
2023-04-20T01:20:54.208Z,25.32
2023-04-20T01:21:54.196Z,25.33
2023-04-20T01:22:54.216Z,25.33
2023-04-20T01:23:54.217Z,25.35
2023-04-20T01:24:54.264Z,25.35
2023-04-20T01:25:54.287Z,25.33
2023-04-20T01:26:54.315Z,25.34
2023-04-20T01:27:54.319Z,25.33
2023-04-20T01:28:54.362Z,25.33
2023-04-20T01:29:54.436Z,25.36
2023-04-20T01:30:54.433Z,25.32
2023-04-20T01:31:54.498Z,25.36
2023-04-20T01:32:54.525Z,25.35
2023-04-20T01:33:54.509Z,25.38
2023-04-20T01:34:54.612Z,25.35
2023-04-20T01:35:54.603Z,25.37
2023-04-20T01:36:54.611Z,25.38
2023-04-20T01:37:54.634Z,25.38
2023-04-20T01:38:54.665Z,25.39
2023-04-20T01:39:54.762Z,25.38
2023-04-20T01:40:54.676Z,25.38
2023-04-20T01:41:54.736Z,25.39
2023-04-20T01:42:54.806Z,25.36
2023-04-20T01:43:54.782Z,25.36
2023-04-20T01:44:54.833Z,25.37
2023-04-20T01:45:54.838Z,25.36
2023-04-20T01:46:54.905Z,25.34
2023-04-20T01:47:55.019Z,25.34
2023-04-20T01:48:54.974Z,25.34
2023-04-20T01:49:54.940Z,25.32
2023-04-20T01:50:54.976Z,25.31
2023-04-20T01:51:55.010Z,25.33
2023-04-20T01:52:55.076Z,25.33
2023-04-20T01:53:55.088Z,25.30
2023-04-20T01:54:55.102Z,25.33
2023-04-20T01:55:55.139Z,25.34
2023-04-20T01:56:55.171Z,25.32
2023-04-20T01:57:55.199Z,25.33
2023-04-20T01:58:55.246Z,25.31
2023-04-20T01:59:55.258Z,25.30
2023-04-20T02:00:55.314Z,25.32
2023-04-20T02:01:55.336Z,25.29
2023-04-20T02:02:55.473Z,25.29
2023-04-20T02:03:55.453Z,25.26
2023-04-20T02:04:55.466Z,25.26
2023-04-20T02:05:55.481Z,25.26
2023-04-20T02:06:55.477Z,25.25
2023-04-20T02:07:55.516Z,25.25
2023-04-20T02:08:55.538Z,25.26
2023-04-20T02:09:55.560Z,25.29
2023-04-20T02:10:55.619Z,25.25
2023-04-20T02:11:55.628Z,25.26
2023-04-20T02:12:55.689Z,25.25
2023-04-20T02:13:55.704Z,25.26
2023-04-20T02:14:55.736Z,25.27
2023-04-20T02:15:55.779Z,25.26
2023-04-20T02:16:55.878Z,25.25
2023-04-20T02:17:55.881Z,25.24
2023-04-20T02:18:55.872Z,25.24
2023-04-20T02:19:55.944Z,25.25
2023-04-20T02:20:55.920Z,25.24
2023-04-20T02:21:55.956Z,25.22
2023-04-20T02:22:55.942Z,25.25
2023-04-20T02:23:55.948Z,25.23
2023-04-20T02:24:55.923Z,25.22
2023-04-20T02:25:55.925Z,25.22
2023-04-20T02:26:55.923Z,25.22
2023-04-20T02:27:55.904Z,25.21
2023-04-20T02:28:55.894Z,25.21
2023-04-20T02:29:55.872Z,25.20
2023-04-20T02:30:55.908Z,25.19
2023-04-20T02:31:55.886Z,25.18
2023-04-20T02:32:55.928Z,25.17
2023-04-20T02:33:55.890Z,25.16
2023-04-20T02:34:55.843Z,25.13
2023-04-20T02:35:55.860Z,25.15
2023-04-20T02:36:55.852Z,25.15
2023-04-20T02:37:55.894Z,25.15
2023-04-20T02:38:55.948Z,25.13
2023-04-20T02:39:55.965Z,25.14
2023-04-20T02:40:56.000Z,25.13
2023-04-20T02:41:56.034Z,25.10
2023-04-20T02:42:56.061Z,25.09
2023-04-20T02:43:56.100Z,25.07
2023-04-20T02:44:56.122Z,25.06
2023-04-20T02:45:56.166Z,25.08
2023-04-20T02:46:56.189Z,25.06
2023-04-20T02:47:56.302Z,25.06
2023-04-20T02:48:56.247Z,25.05
2023-04-20T02:49:56.280Z,25.06
2023-04-20T02:50:56.270Z,25.06
2023-04-20T02:51:56.310Z,25.05
2023-04-20T02:52:56.325Z,25.03
2023-04-20T02:53:56.360Z,25.07
2023-04-20T02:54:56.410Z,25.01
2023-04-20T02:55:56.432Z,25.04
2023-04-20T02:56:57.978Z,25.01
2023-04-20T02:57:56.478Z,25.02
2023-04-20T02:58:56.538Z,25.03
2023-04-20T02:59:56.555Z,25.02
2023-04-20T03:00:56.583Z,25.01
2023-04-20T03:01:56.656Z,24.98
2023-04-20T03:02:56.868Z,24.99
2023-04-20T03:03:56.792Z,25.01
2023-04-20T03:04:56.715Z,24.99
2023-04-20T03:05:56.922Z,24.98
2023-04-20T03:06:56.761Z,25.00
2023-04-20T03:07:56.783Z,24.99
2023-04-20T03:08:56.839Z,24.94
2023-04-20T03:09:56.866Z,24.94
2023-04-20T03:10:56.890Z,24.95
2023-04-20T03:11:56.939Z,24.94
2023-04-20T03:12:56.949Z,24.92
2023-04-20T03:13:56.997Z,24.91
2023-04-20T03:14:57.017Z,24.88
2023-04-20T03:15:57.094Z,24.86
2023-04-20T03:16:57.085Z,24.85
2023-04-20T03:17:57.134Z,24.84
2023-04-20T03:18:57.226Z,24.83
2023-04-20T03:19:57.149Z,24.80
2023-04-20T03:20:57.169Z,24.81
2023-04-20T03:21:57.203Z,24.79
2023-04-20T03:22:57.215Z,24.79
2023-04-20T03:23:57.256Z,24.76
2023-04-20T03:24:57.299Z,24.77
2023-04-20T03:25:57.326Z,24.72
2023-04-20T03:26:57.325Z,24.76
2023-04-20T03:27:57.345Z,24.74
2023-04-20T03:28:57.391Z,24.75
2023-04-20T03:29:57.387Z,24.73
2023-04-20T03:30:57.421Z,24.70
2023-04-20T03:31:57.485Z,24.69
2023-04-20T03:32:57.527Z,24.72
2023-04-20T03:33:57.524Z,24.72
2023-04-20T03:34:57.612Z,24.72
2023-04-20T03:35:57.581Z,24.73
2023-04-20T03:36:57.600Z,24.70
2023-04-20T03:37:57.618Z,24.73
2023-04-20T03:38:57.664Z,24.71
2023-04-20T03:39:57.699Z,24.68
2023-04-20T03:40:57.728Z,24.69
2023-04-20T03:41:57.749Z,24.70
2023-04-20T03:42:57.782Z,24.67
2023-04-20T03:43:57.804Z,24.69
2023-04-20T03:44:57.818Z,24.65
2023-04-20T03:45:57.882Z,24.67
2023-04-20T03:46:57.941Z,24.64
2023-04-20T03:47:57.984Z,24.64
2023-04-20T03:48:57.967Z,24.63
2023-04-20T03:49:57.998Z,24.64
2023-04-20T03:50:58.011Z,24.61
2023-04-20T03:51:58.033Z,24.64
2023-04-20T03:52:58.089Z,24.64
2023-04-20T03:53:58.094Z,24.64
2023-04-20T03:54:58.154Z,24.65
2023-04-20T03:55:58.174Z,24.66
2023-04-20T03:56:58.180Z,24.65
2023-04-20T03:57:58.217Z,24.66
2023-04-20T03:58:58.236Z,24.64
2023-04-20T03:59:58.267Z,24.61
2023-04-20T04:00:58.297Z,24.63
2023-04-20T04:01:58.390Z,24.62
2023-04-20T04:02:58.535Z,24.62
2023-04-20T04:03:58.607Z,24.61
2023-04-20T04:04:58.560Z,24.61
2023-04-20T04:05:58.440Z,24.61
2023-04-20T04:06:58.582Z,24.62
2023-04-20T04:07:58.511Z,24.63
2023-04-20T04:08:58.533Z,24.65
2023-04-20T04:09:58.544Z,24.62
2023-04-20T04:10:58.579Z,24.66
2023-04-20T04:11:58.604Z,24.67
2023-04-20T04:12:58.641Z,24.66
2023-04-20T04:13:58.654Z,24.65
2023-04-20T04:14:58.683Z,24.66
2023-04-20T04:15:58.728Z,24.67
2023-04-20T04:16:58.767Z,24.67
2023-04-20T04:17:58.875Z,24.67
2023-04-20T04:18:58.841Z,24.64
2023-04-20T04:19:58.864Z,24.66
2023-04-20T04:20:58.878Z,24.66
2023-04-20T04:21:58.912Z,24.65
2023-04-20T04:22:58.973Z,24.68
2023-04-20T04:23:58.975Z,24.67
2023-04-20T04:24:58.985Z,24.67
2023-04-20T04:25:59.048Z,24.67
2023-04-20T04:26:59.085Z,24.67
2023-04-20T04:27:59.082Z,24.67
2023-04-20T04:28:59.116Z,24.67
2023-04-20T04:29:59.140Z,24.70
2023-04-20T04:30:59.201Z,24.67
2023-04-20T04:31:59.190Z,24.66
2023-04-20T04:32:59.251Z,24.69
2023-04-20T04:33:59.273Z,24.66
2023-04-20T04:34:59.290Z,24.67
2023-04-20T04:35:59.365Z,24.67
2023-04-20T04:36:59.353Z,24.65
2023-04-20T04:37:59.367Z,24.68
2023-04-20T04:38:59.423Z,24.67
2023-04-20T04:39:59.449Z,24.67
2023-04-20T04:40:59.476Z,24.66
2023-04-20T04:41:59.501Z,24.65
2023-04-20T04:42:59.535Z,24.66
2023-04-20T04:43:59.640Z,24.68
2023-04-20T04:44:59.595Z,24.66
2023-04-20T04:45:59.682Z,24.65
2023-04-20T04:46:59.647Z,24.65
2023-04-20T04:47:59.767Z,24.66
2023-04-20T04:48:59.739Z,24.64
2023-04-20T04:49:59.728Z,24.65
2023-04-20T04:50:59.764Z,24.66
2023-04-20T04:51:59.819Z,24.65
2023-04-20T04:52:59.813Z,24.64
2023-04-20T04:53:59.842Z,24.63
2023-04-20T04:54:59.866Z,24.62
2023-04-20T04:55:59.889Z,24.63
2023-04-20T04:56:59.925Z,24.62
2023-04-20T04:57:59.939Z,24.62
2023-04-20T04:59:00.022Z,24.63
2023-04-20T05:00:00.020Z,24.63
2023-04-20T05:01:00.077Z,24.64
2023-04-20T05:02:00.150Z,24.65
2023-04-20T05:03:00.177Z,24.63
2023-04-20T05:04:00.306Z,24.64
2023-04-20T05:05:00.160Z,24.62
2023-04-20T05:06:00.200Z,24.62
2023-04-20T05:07:00.201Z,24.64
2023-04-20T05:08:00.237Z,24.61
2023-04-20T05:09:00.264Z,24.62
2023-04-20T05:10:00.268Z,24.63
2023-04-20T05:11:00.310Z,24.65
2023-04-20T05:12:00.328Z,24.66
2023-04-20T05:13:00.355Z,24.67
2023-04-20T05:14:00.364Z,24.69
2023-04-20T05:15:00.450Z,24.69
2023-04-20T05:16:00.442Z,24.68
2023-04-20T05:17:00.460Z,24.70
2023-04-20T05:18:00.512Z,24.70
2023-04-20T05:19:00.759Z,24.72
2023-04-20T05:20:00.576Z,24.72
2023-04-20T05:21:00.596Z,24.72
2023-04-20T05:22:00.593Z,24.70
2023-04-20T05:23:00.639Z,24.70
2023-04-20T05:24:00.792Z,24.68
2023-04-20T05:25:00.693Z,24.70
2023-04-20T05:26:00.729Z,24.71
2023-04-20T05:27:00.729Z,24.75
2023-04-20T05:28:00.744Z,24.72
2023-04-20T05:29:00.825Z,24.73
2023-04-20T05:30:13.011Z,24.73
2023-04-20T05:31:01.832Z,25.14
2023-04-20T05:32:02.864Z,25.21
2023-04-20T05:33:01.785Z,25.42
2023-04-20T05:34:00.805Z,25.33
2023-04-20T05:35:00.806Z,25.66
2023-04-20T05:36:00.817Z,25.67
2023-04-20T05:37:00.759Z,25.61
2023-04-20T05:38:00.796Z,26.52
2023-04-20T05:39:00.773Z,26.25
2023-04-20T05:40:00.779Z,25.88
2023-04-20T05:41:00.734Z,26.03
2023-04-20T05:42:00.767Z,26.20
2023-04-20T05:43:00.747Z,26.35
2023-04-20T05:44:00.766Z,26.26
2023-04-20T05:45:00.817Z,26.12
2023-04-20T05:46:00.836Z,25.96
2023-04-20T05:47:00.862Z,25.91
2023-04-20T05:48:00.887Z,25.81
2023-04-20T05:49:00.863Z,25.75
2023-04-20T05:50:01.764Z,25.76
2023-04-20T05:51:00.907Z,25.64
2023-04-20T05:52:00.989Z,25.64
2023-04-20T05:53:00.937Z,25.56
2023-04-20T05:54:00.980Z,25.60
2023-04-20T05:55:00.961Z,25.59
2023-04-20T05:56:00.986Z,25.54
2023-04-20T05:57:00.972Z,25.55
2023-04-20T05:58:00.975Z,25.46
2023-04-20T05:59:01.277Z,25.50
2023-04-20T06:00:00.992Z,25.87
2023-04-20T06:01:00.978Z,25.97
2023-04-20T06:02:01.111Z,25.94
2023-04-20T06:03:01.156Z,26.04
2023-04-20T06:04:01.323Z,26.06
2023-04-20T06:05:01.300Z,26.21
2023-04-20T06:06:01.002Z,26.06
2023-04-20T06:07:00.991Z,26.23
2023-04-20T06:08:00.977Z,25.97
2023-04-20T06:09:00.991Z,26.10
2023-04-20T06:10:00.981Z,26.11
2023-04-20T06:11:00.986Z,26.17
2023-04-20T06:12:00.969Z,26.03
2023-04-20T06:13:00.982Z,26.13
2023-04-20T06:14:00.995Z,26.05
2023-04-20T06:15:00.973Z,25.98
2023-04-20T06:16:01.058Z,25.93
2023-04-20T06:17:01.018Z,25.88
2023-04-20T06:18:01.102Z,25.82
2023-04-20T06:19:01.137Z,25.84
2023-04-20T06:20:01.151Z,25.86
2023-04-20T06:21:01.180Z,26.02
2023-04-20T06:22:01.387Z,26.07
2023-04-20T06:23:01.346Z,25.78
2023-04-20T06:24:01.796Z,25.79
2023-04-20T06:25:01.418Z,26.00
2023-04-20T06:26:01.502Z,25.77
2023-04-20T06:27:01.519Z,26.29
2023-04-20T06:28:01.624Z,26.25
2023-04-20T06:29:01.640Z,26.07
2023-04-20T06:30:01.703Z,27.21
2023-04-20T06:31:01.721Z,26.86
2023-04-20T06:32:01.688Z,27.10
2023-04-20T06:33:01.778Z,27.41
2023-04-20T06:34:01.785Z,27.08
2023-04-20T06:35:01.672Z,26.85
2023-04-20T06:36:01.681Z,27.24
2023-04-20T06:37:01.731Z,26.82
2023-04-20T06:38:01.710Z,26.64
2023-04-20T06:39:01.800Z,26.35
2023-04-20T06:40:01.833Z,26.61
2023-04-20T06:41:01.916Z,26.60
2023-04-20T06:42:01.954Z,26.45
2023-04-20T06:43:02.020Z,26.59
2023-04-20T06:44:02.304Z,26.54
2023-04-20T06:45:02.112Z,26.51
2023-04-20T06:46:02.152Z,26.59
2023-04-20T06:47:02.224Z,26.47
2023-04-20T06:48:02.312Z,26.46
2023-04-20T06:49:02.315Z,26.46
2023-04-20T06:50:02.343Z,26.53
2023-04-20T06:51:02.368Z,26.51
2023-04-20T06:52:02.379Z,26.44
2023-04-20T06:53:02.432Z,26.54
2023-04-20T06:54:02.469Z,26.55
2023-04-20T06:55:02.540Z,26.58
2023-04-20T06:56:02.561Z,26.27
2023-04-20T06:57:02.567Z,25.96
2023-04-20T06:58:02.632Z,25.93
2023-04-20T06:59:02.662Z,26.06
2023-04-20T07:00:02.740Z,25.97
2023-04-20T07:01:02.813Z,26.05
2023-04-20T07:02:02.857Z,26.10
2023-04-20T07:03:02.856Z,26.06
2023-04-20T07:04:03.094Z,26.18
2023-04-20T07:05:02.839Z,26.19
2023-04-20T07:06:02.795Z,26.18
2023-04-20T07:07:02.834Z,26.22
2023-04-20T07:08:02.875Z,26.26
2023-04-20T07:09:02.895Z,26.28
2023-04-20T07:10:02.954Z,26.24
2023-04-20T07:11:02.980Z,26.50
2023-04-20T07:12:02.958Z,26.58
2023-04-20T07:13:02.982Z,26.79
2023-04-20T07:14:02.986Z,26.93
2023-04-20T07:15:03.020Z,27.06
2023-04-20T07:16:03.134Z,27.05
2023-04-20T07:17:03.059Z,26.88
2023-04-20T07:18:03.167Z,27.08
2023-04-20T07:19:03.512Z,27.07
2023-04-20T07:20:03.096Z,26.88
2023-04-20T07:21:03.091Z,26.79
2023-04-20T07:22:03.172Z,26.73
2023-04-20T07:23:03.158Z,26.75
2023-04-20T07:24:03.812Z,26.82
2023-04-20T07:25:03.272Z,26.74
2023-04-20T07:26:03.326Z,27.08
2023-04-20T07:27:03.403Z,27.32
2023-04-20T07:28:03.440Z,27.24
2023-04-20T07:29:03.865Z,26.95
2023-04-20T07:30:03.588Z,26.05
2023-04-20T07:31:03.577Z,26.56
2023-04-20T07:32:03.632Z,26.74
2023-04-20T07:33:03.681Z,27.07
2023-04-20T07:34:03.833Z,27.23
2023-04-20T07:35:03.697Z,27.20
2023-04-20T07:36:03.672Z,27.45
2023-04-20T07:37:03.668Z,27.32
2023-04-20T07:38:03.700Z,27.21
2023-04-20T07:39:03.714Z,27.23
2023-04-20T07:40:03.705Z,27.13
2023-04-20T07:41:03.719Z,27.16
2023-04-20T07:42:03.730Z,27.02
2023-04-20T07:43:03.757Z,26.96
2023-04-20T07:44:04.319Z,26.84
2023-04-20T07:45:03.898Z,26.84
2023-04-20T07:46:03.940Z,26.94
2023-04-20T07:47:04.877Z,27.28
2023-04-20T07:48:04.120Z,27.09
2023-04-20T07:49:04.297Z,26.90
2023-04-20T07:50:04.191Z,26.84
2023-04-20T07:51:04.212Z,26.72
2023-04-20T07:52:15.783Z,26.71
2023-04-20T07:53:05.280Z,26.54
2023-04-20T07:54:04.324Z,26.53
2023-04-20T07:55:04.277Z,26.53
2023-04-20T07:56:04.273Z,26.45
2023-04-20T07:57:04.264Z,26.40
2023-04-20T07:58:04.251Z,26.36
2023-04-20T07:59:04.256Z,26.36
2023-04-20T08:00:04.237Z,26.48
2023-04-20T08:01:04.215Z,26.43
2023-04-20T08:02:04.344Z,26.59
2023-04-20T08:03:04.315Z,26.02
2023-04-20T08:04:04.345Z,26.16
2023-04-20T08:05:04.388Z,26.54
2023-04-20T08:06:04.438Z,26.55
2023-04-20T08:07:04.406Z,26.60
2023-04-20T08:08:04.310Z,26.53
2023-04-20T08:09:04.321Z,26.54
2023-04-20T08:10:04.366Z,26.04
2023-04-20T08:11:04.407Z,26.19
2023-04-20T08:12:04.410Z,26.19
2023-04-20T08:13:04.456Z,26.51
2023-04-20T08:14:04.473Z,25.92
2023-04-20T08:15:04.505Z,26.10
2023-04-20T08:16:04.589Z,26.40
2023-04-20T08:17:04.553Z,26.31
2023-04-20T08:18:05.634Z,26.38
2023-04-20T08:19:04.667Z,26.63
2023-04-20T08:20:04.669Z,26.34
2023-04-20T08:21:04.738Z,26.56
2023-04-20T08:22:04.813Z,26.46
2023-04-20T08:23:05.344Z,26.33
2023-04-20T08:24:05.338Z,26.35
2023-04-20T08:25:04.864Z,26.35
2023-04-20T08:26:04.902Z,26.48
2023-04-20T08:27:04.944Z,26.91
2023-04-20T08:28:06.210Z,26.92
2023-04-20T08:29:04.959Z,26.71
2023-04-20T08:30:04.926Z,26.63
2023-04-20T08:31:05.133Z,26.71
2023-04-20T08:32:04.949Z,26.81
2023-04-20T08:33:05.049Z,26.86
2023-04-20T08:34:04.941Z,26.72
2023-04-20T08:35:04.968Z,26.75
2023-04-20T08:36:04.944Z,26.55
2023-04-20T08:37:04.887Z,26.73
2023-04-20T08:38:04.894Z,26.77
2023-04-20T08:39:05.349Z,26.15
2023-04-20T08:40:04.872Z,25.85
2023-04-20T08:41:04.858Z,25.80
2023-04-20T08:42:04.877Z,25.83
2023-04-20T08:43:04.848Z,26.29
2023-04-20T08:44:04.836Z,26.11
2023-04-20T08:45:04.844Z,26.44
2023-04-20T08:46:04.911Z,26.61
2023-04-20T08:47:04.940Z,26.62
2023-04-20T08:48:04.872Z,26.71
2023-04-20T08:49:04.791Z,26.77
2023-04-20T08:50:04.786Z,26.77
2023-04-20T08:51:04.806Z,26.74
2023-04-20T08:52:04.762Z,26.78
2023-04-20T08:53:04.796Z,26.75
2023-04-20T08:54:04.936Z,26.71
2023-04-20T08:55:04.838Z,26.93
2023-04-20T08:56:04.766Z,27.00
2023-04-20T08:57:04.783Z,26.68
2023-04-20T08:58:04.773Z,26.67
2023-04-20T08:59:04.746Z,26.75
2023-04-20T09:00:04.715Z,26.72
2023-04-20T09:01:04.733Z,26.64
2023-04-20T09:02:04.828Z,26.77
2023-04-20T09:03:04.931Z,26.86
2023-04-20T09:04:04.997Z,26.62
2023-04-20T09:05:04.901Z,26.77
2023-04-20T09:06:04.771Z,26.57
2023-04-20T09:07:04.786Z,26.94
2023-04-20T09:08:04.840Z,26.71
2023-04-20T09:09:04.818Z,26.72
2023-04-20T09:10:04.849Z,26.85
2023-04-20T09:11:04.867Z,26.63
2023-04-20T09:12:04.870Z,26.66
2023-04-20T09:13:04.900Z,26.68
2023-04-20T09:14:05.356Z,26.88
2023-04-20T09:15:04.934Z,26.88
2023-04-20T09:16:04.998Z,26.61
2023-04-20T09:17:04.971Z,26.67
2023-04-20T09:18:05.029Z,26.89
2023-04-20T09:19:06.812Z,26.85
2023-04-20T09:20:05.060Z,26.84
2023-04-20T09:21:04.970Z,26.71
2023-04-20T09:22:04.987Z,26.65
2023-04-20T09:23:04.972Z,26.63
2023-04-20T09:24:04.977Z,26.69
2023-04-20T09:25:04.968Z,26.32
2023-04-20T09:26:04.970Z,25.99
2023-04-20T09:27:04.974Z,25.71
2023-04-20T09:28:04.941Z,25.90
2023-04-20T09:29:05.352Z,26.03
2023-04-20T09:30:04.942Z,26.40
2023-04-20T09:31:04.899Z,26.79
2023-04-20T09:32:04.940Z,26.61
2023-04-20T09:33:04.960Z,26.55
2023-04-20T09:34:04.940Z,26.56
2023-04-20T09:35:04.883Z,26.66
2023-04-20T09:36:04.887Z,26.67
2023-04-20T09:37:07.181Z,26.66
2023-04-20T09:38:04.926Z,26.78
2023-04-20T09:39:04.921Z,26.79
2023-04-20T09:40:04.919Z,26.75
2023-04-20T09:41:04.875Z,26.89
2023-04-20T09:42:04.868Z,26.92
2023-04-20T09:43:04.876Z,26.93
2023-04-20T09:44:04.938Z,26.99
2023-04-20T09:45:04.902Z,27.11
2023-04-20T09:46:04.967Z,27.27
2023-04-20T09:47:04.937Z,27.12
2023-04-20T09:48:04.980Z,27.05
2023-04-20T09:49:04.977Z,27.06
2023-04-20T09:50:19.560Z,27.08
2023-04-20T09:51:05.959Z,27.04
2023-04-20T09:52:04.941Z,27.17
2023-04-20T09:53:04.947Z,27.12
2023-04-20T09:54:04.933Z,27.20
2023-04-20T09:55:04.927Z,27.14
2023-04-20T09:56:04.984Z,27.32
2023-04-20T09:57:04.919Z,27.22
2023-04-20T09:58:04.895Z,27.39
2023-04-20T09:59:04.917Z,27.44
2023-04-20T10:00:04.892Z,27.35
2023-04-20T10:01:04.944Z,27.39
2023-04-20T10:02:04.970Z,27.44
2023-04-20T10:03:05.007Z,27.44
2023-04-20T10:04:05.062Z,27.52
2023-04-20T10:05:04.883Z,27.52
2023-04-20T10:06:05.371Z,27.52
2023-04-20T10:07:04.843Z,27.79
2023-04-20T10:08:04.882Z,27.63
2023-04-20T10:09:04.917Z,27.75
2023-04-20T10:10:04.981Z,27.61
2023-04-20T10:11:05.042Z,27.55
2023-04-20T10:12:05.099Z,27.47
2023-04-20T10:13:05.175Z,27.66
2023-04-20T10:14:05.293Z,27.76
2023-04-20T10:15:05.348Z,27.72
2023-04-20T10:16:05.363Z,27.73
2023-04-20T10:17:05.589Z,27.82
2023-04-20T10:18:05.526Z,27.81
2023-04-20T10:19:07.675Z,28.13
2023-04-20T10:20:05.862Z,28.21
2023-04-20T10:21:05.543Z,27.76
2023-04-20T10:22:05.546Z,27.68
2023-04-20T10:23:05.553Z,27.22
2023-04-20T10:24:05.554Z,26.61
2023-04-20T10:25:05.864Z,26.59
2023-04-20T10:26:05.510Z,26.18
2023-04-20T10:27:05.480Z,26.23
2023-04-20T10:28:05.494Z,25.94
2023-04-20T10:29:05.478Z,25.66
2023-04-20T10:30:05.459Z,25.72
2023-04-20T10:31:05.550Z,25.50
2023-04-20T10:32:05.461Z,25.46
2023-04-20T10:33:05.535Z,25.32
2023-04-20T10:34:05.458Z,25.70
2023-04-20T10:35:05.484Z,25.25
2023-04-20T10:36:05.445Z,25.50
2023-04-20T10:37:05.454Z,25.23
2023-04-20T10:38:05.425Z,25.10
2023-04-20T10:39:05.450Z,25.37
2023-04-20T10:40:07.756Z,25.35
2023-04-20T10:41:05.656Z,25.07
2023-04-20T10:42:05.674Z,25.24
2023-04-20T10:43:05.677Z,25.16
2023-04-20T10:44:05.681Z,25.08
2023-04-20T10:45:05.911Z,25.02
2023-04-20T10:46:05.702Z,25.03
2023-04-20T10:47:05.748Z,24.87
2023-04-20T10:48:05.750Z,24.96
2023-04-20T10:49:05.717Z,25.10
2023-04-20T10:50:05.715Z,24.98
2023-04-20T10:51:05.802Z,24.88
2023-04-20T10:52:05.787Z,24.98
2023-04-20T10:53:05.820Z,24.93
2023-04-20T10:54:05.839Z,25.06
2023-04-20T10:55:05.906Z,24.95
2023-04-20T10:56:05.835Z,25.15
2023-04-20T10:57:05.898Z,25.03
2023-04-20T10:58:05.887Z,24.96
2023-04-20T10:59:05.917Z,25.10
2023-04-20T11:00:05.937Z,25.03
2023-04-20T11:01:05.971Z,25.04
2023-04-20T11:02:06.125Z,25.02
2023-04-20T11:03:06.436Z,25.01
2023-04-20T11:04:06.360Z,24.97
2023-04-20T11:05:06.109Z,25.10
2023-04-20T11:06:06.057Z,25.05
2023-04-20T11:07:06.077Z,25.05
2023-04-20T11:08:06.104Z,25.15
2023-04-20T11:09:06.144Z,25.15
2023-04-20T11:10:06.182Z,25.15
2023-04-20T11:11:06.207Z,25.28
2023-04-20T11:12:06.210Z,25.29
2023-04-20T11:13:06.273Z,25.33
2023-04-20T11:14:06.315Z,25.37
2023-04-20T11:15:06.321Z,25.37
2023-04-20T11:16:06.426Z,25.37
2023-04-20T11:17:06.402Z,25.40
2023-04-20T11:18:06.441Z,25.38
2023-04-20T11:19:06.409Z,25.36
2023-04-20T11:20:06.896Z,25.46
2023-04-20T11:21:06.449Z,25.60
2023-04-20T11:22:06.614Z,25.86
2023-04-20T11:23:06.529Z,26.03
2023-04-20T11:24:06.639Z,26.51
2023-04-20T11:25:06.640Z,26.69
2023-04-20T11:26:06.720Z,26.86
2023-04-20T11:27:06.715Z,26.81
2023-04-20T11:28:06.769Z,30.07
2023-04-20T11:29:06.772Z,29.18
2023-04-20T11:30:06.756Z,30.18
2023-04-20T11:31:06.795Z,34.38
2023-04-20T11:32:06.848Z,37.09
2023-04-20T11:33:06.877Z,36.34
2023-04-20T11:34:07.242Z,35.71
2023-04-20T11:35:07.346Z,32.42
2023-04-20T11:36:06.850Z,32.16
2023-04-20T11:37:06.932Z,31.99
2023-04-20T11:38:07.004Z,31.48
2023-04-20T11:39:07.021Z,31.12
2023-04-20T11:40:07.405Z,30.86
2023-04-20T11:41:07.101Z,30.42
2023-04-20T11:42:07.155Z,30.02
2023-04-20T11:43:07.199Z,29.89
2023-04-20T11:44:07.270Z,29.78
2023-04-20T11:45:07.223Z,29.66
2023-04-20T11:46:07.295Z,29.49
2023-04-20T11:47:07.317Z,29.34
2023-04-20T11:48:07.326Z,29.15
2023-04-20T11:49:07.374Z,29.02
2023-04-20T11:50:07.353Z,28.77
2023-04-20T11:51:07.375Z,28.64
2023-04-20T11:52:07.424Z,28.51
2023-04-20T11:53:07.422Z,28.39
2023-04-20T11:54:07.485Z,28.24
2023-04-20T11:55:07.479Z,28.17
2023-04-20T11:56:07.504Z,28.04
2023-04-20T11:57:07.563Z,27.96
2023-04-20T11:58:07.583Z,27.87
2023-04-20T11:59:07.585Z,27.78
2023-04-20T12:00:08.441Z,27.73
2023-04-20T12:01:07.610Z,27.67
2023-04-20T12:02:07.674Z,27.59
2023-04-20T12:03:07.831Z,27.55
2023-04-20T12:04:08.016Z,27.51
2023-04-20T12:05:07.713Z,27.42
2023-04-20T12:06:07.622Z,27.37
2023-04-20T12:07:07.641Z,27.32
2023-04-20T12:08:07.645Z,27.31
2023-04-20T12:09:07.619Z,27.27
2023-04-20T12:10:07.649Z,27.21
2023-04-20T12:11:07.616Z,27.18
2023-04-20T12:12:07.637Z,27.14
2023-04-20T12:13:07.628Z,27.13
2023-04-20T12:14:07.623Z,27.09
2023-04-20T12:15:07.626Z,27.07
2023-04-20T12:16:07.668Z,27.03
2023-04-20T12:17:07.622Z,27.01
2023-04-20T12:18:07.797Z,26.96
2023-04-20T12:19:07.613Z,26.98
2023-04-20T12:20:07.646Z,26.92
2023-04-20T12:21:07.634Z,26.89
2023-04-20T12:22:07.660Z,26.88
2023-04-20T12:23:07.673Z,26.84
2023-04-20T12:24:07.622Z,26.82
2023-04-20T12:25:07.657Z,26.77
2023-04-20T12:26:07.681Z,26.76
2023-04-20T12:27:07.644Z,26.73
2023-04-20T12:28:07.646Z,26.71
2023-04-20T12:29:07.730Z,26.70
2023-04-20T12:30:07.679Z,26.67
2023-04-20T12:31:07.696Z,26.67
2023-04-20T12:32:07.673Z,26.63
2023-04-20T12:33:07.740Z,26.58
2023-04-20T12:34:07.714Z,26.58
2023-04-20T12:35:07.752Z,26.55
2023-04-20T12:36:07.779Z,26.54
2023-04-20T12:37:07.828Z,26.50
2023-04-20T12:38:07.861Z,26.48
2023-04-20T12:39:07.891Z,26.46
2023-04-20T12:40:07.920Z,26.46
2023-04-20T12:41:07.989Z,26.42
2023-04-20T12:42:08.015Z,26.42
2023-04-20T12:43:08.060Z,26.39
2023-04-20T12:44:10.006Z,26.36
2023-04-20T12:45:08.129Z,26.38
2023-04-20T12:46:08.141Z,26.34
2023-04-20T12:47:08.261Z,26.34
2023-04-20T12:48:08.180Z,26.33
2023-04-20T12:49:08.108Z,26.18
2023-04-20T12:50:08.118Z,26.12
2023-04-20T12:51:08.077Z,26.06
2023-04-20T12:52:08.309Z,26.17
2023-04-20T12:53:08.063Z,26.14